sensor_id;sensor_type;location;lat;lon;timestamp;pressure;altitude;pressure_sealevel;temperature;humidity
64844;BME280;51310;52.198;5.422;2023-09-12T00:00:01;101181.34;;;18.66;90.50
64844;BME280;51310;52.198;5.422;2023-09-12T00:02:28;101176.94;;;18.65;90.66
64844;BME280;51310;52.198;5.422;2023-09-12T00:04:54;101178.63;;;18.66;90.56
64844;BME280;51310;52.198;5.422;2023-09-12T00:07:20;101182.06;;;18.68;90.62
64844;BME280;51310;52.198;5.422;2023-09-12T00:09:46;101183.63;;;18.61;90.74
64844;BME280;51310;52.198;5.422;2023-09-12T00:12:15;101170.94;;;18.51;90.71
64844;BME280;51310;52.198;5.422;2023-09-12T00:14:41;101198.84;;;18.62;91.01
64844;BME280;51310;52.198;5.422;2023-09-12T00:17:07;101173.66;;;18.51;91.14
64844;BME280;51310;52.198;5.422;2023-09-12T00:19:34;101173.09;;;18.58;90.82
64844;BME280;51310;52.198;5.422;2023-09-12T00:22:00;101172.38;;;18.56;91.06
64844;BME280;51310;52.198;5.422;2023-09-12T00:24:26;101169.94;;;18.52;91.21
64844;BME280;51310;52.198;5.422;2023-09-12T00:26:52;101168.22;;;18.51;91.17
64844;BME280;51310;52.198;5.422;2023-09-12T00:29:18;101172.94;;;18.49;91.10
64844;BME280;51310;52.198;5.422;2023-09-12T00:31:44;101158.38;;;18.50;91.05
64844;BME280;51310;52.198;5.422;2023-09-12T00:34:10;101162.41;;;18.46;90.93
64844;BME280;51310;52.198;5.422;2023-09-12T00:36:41;101166.50;;;18.50;90.99
64844;BME280;51310;52.198;5.422;2023-09-12T00:39:06;101168.50;;;18.48;91.18
64844;BME280;51310;52.198;5.422;2023-09-12T00:41:32;101154.09;;;18.38;91.20
64844;BME280;51310;52.198;5.422;2023-09-12T00:43:58;101163.19;;;18.37;91.30
64844;BME280;51310;52.198;5.422;2023-09-12T00:46:25;101161.81;;;18.33;91.15
64844;BME280;51310;52.198;5.422;2023-09-12T00:48:53;101162.78;;;18.32;91.42
64844;BME280;51310;52.198;5.422;2023-09-12T00:51:20;101166.34;;;18.33;91.35
64844;BME280;51310;52.198;5.422;2023-09-12T00:53:48;101168.06;;;18.34;91.37
64844;BME280;51310;52.198;5.422;2023-09-12T00:56:14;101157.22;;;18.24;91.68
64844;BME280;51310;52.198;5.422;2023-09-12T00:58:40;101167.47;;;18.30;91.41
64844;BME280;51310;52.198;5.422;2023-09-12T01:01:07;101153.06;;;18.20;91.54
64844;BME280;51310;52.198;5.422;2023-09-12T01:03:33;101154.34;;;18.16;91.51
64844;BME280;51310;52.198;5.422;2023-09-12T01:06:01;101170.75;;;18.24;91.67
64844;BME280;51310;52.198;5.422;2023-09-12T01:08:28;101170.75;;;18.24;91.79
64844;BME280;51310;52.198;5.422;2023-09-12T01:10:55;101170.03;;;18.22;91.62
64844;BME280;51310;52.198;5.422;2023-09-12T01:13:23;101150.91;;;18.14;91.60
64844;BME280;51310;52.198;5.422;2023-09-12T01:15:49;101162.88;;;18.21;91.73
64844;BME280;51310;52.198;5.422;2023-09-12T01:18:15;101155.19;;;18.16;91.89
64844;BME280;51310;52.198;5.422;2023-09-12T01:21:05;101166.59;;;18.20;91.93
64844;BME280;51310;52.198;5.422;2023-09-12T01:24:23;101165.88;;;18.18;91.86
64844;BME280;51310;52.198;5.422;2023-09-12T01:27:33;101161.75;;;18.14;91.88
64844;BME280;51310;52.198;5.422;2023-09-12T01:30:06;101156.88;;;18.07;91.85
64844;BME280;51310;52.198;5.422;2023-09-12T01:32:33;101166.72;;;18.08;92.18
64844;BME280;51310;52.198;5.422;2023-09-12T01:35:01;101159.44;;;17.99;92.03
64844;BME280;51310;52.198;5.422;2023-09-12T01:37:30;101160.16;;;18.01;92.18
64844;BME280;51310;52.198;5.422;2023-09-12T01:39:57;101176.94;;;18.05;92.26
64844;BME280;51310;52.198;5.422;2023-09-12T01:42:24;101177.78;;;18.05;92.28
64844;BME280;51310;52.198;5.422;2023-09-12T01:44:56;101159.44;;;17.99;92.39
64844;BME280;51310;52.198;5.422;2023-09-12T01:47:25;101164.56;;;18.02;92.49
64844;BME280;51310;52.198;5.422;2023-09-12T01:49:57;101161.72;;;18.04;92.63
64844;BME280;51310;52.198;5.422;2023-09-12T01:52:27;101152.56;;;17.95;92.41
64844;BME280;51310;52.198;5.422;2023-09-12T01:54:54;101165.41;;;18.03;92.38
64844;BME280;51310;52.198;5.422;2023-09-12T01:57:21;101160.41;;;17.98;92.32
64844;BME280;51310;52.198;5.422;2023-09-12T01:59:49;101164.84;;;17.99;92.45
64844;BME280;51310;52.198;5.422;2023-09-12T02:02:18;101152.81;;;17.92;92.71
64844;BME280;51310;52.198;5.422;2023-09-12T02:04:54;101159.16;;;18.02;92.65
64844;BME280;51310;52.198;5.422;2023-09-12T02:07:35;101168.94;;;18.03;92.60
64844;BME280;51310;52.198;5.422;2023-09-12T02:10:04;101158.72;;;17.97;92.86
64844;BME280;51310;52.198;5.422;2023-09-12T02:12:31;101148.72;;;17.88;92.65
64844;BME280;51310;52.198;5.422;2023-09-12T02:14:58;101160.53;;;17.97;92.54
64844;BME280;51310;52.198;5.422;2023-09-12T02:17:24;101141.88;;;17.84;92.65
64844;BME280;51310;52.198;5.422;2023-09-12T02:19:49;101136.00;;;17.79;92.66
64844;BME280;51310;52.198;5.422;2023-09-12T02:22:15;101131.97;;;17.73;92.72
64844;BME280;51310;52.198;5.422;2023-09-12T02:24:41;101146.94;;;17.77;92.72
64844;BME280;51310;52.198;5.422;2023-09-12T02:27:07;101136.78;;;17.69;92.58
64844;BME280;51310;52.198;5.422;2023-09-12T02:29:34;101147.59;;;17.69;92.45
64844;BME280;51310;52.198;5.422;2023-09-12T02:32:00;101147.28;;;17.63;92.61
64844;BME280;51310;52.198;5.422;2023-09-12T02:34:26;101138.88;;;17.56;92.71
64844;BME280;51310;52.198;5.422;2023-09-12T02:36:52;101148.56;;;17.59;92.77
64844;BME280;51310;52.198;5.422;2023-09-12T02:39:18;101157.50;;;17.59;92.51
64844;BME280;51310;52.198;5.422;2023-09-12T02:41:44;101148.97;;;17.54;92.89
64844;BME280;51310;52.198;5.422;2023-09-12T02:44:10;101148.97;;;17.54;92.62
64844;BME280;51310;52.198;5.422;2023-09-12T02:46:37;101158.16;;;17.52;92.92
64844;BME280;51310;52.198;5.422;2023-09-12T02:49:03;101148.88;;;17.44;92.78
64844;BME280;51310;52.198;5.422;2023-09-12T02:51:29;101160.53;;;17.45;92.61
64844;BME280;51310;52.198;5.422;2023-09-12T02:53:55;101154.44;;;17.43;92.67
64844;BME280;51310;52.198;5.422;2023-09-12T02:56:21;101153.44;;;17.44;92.79
64844;BME280;51310;52.198;5.422;2023-09-12T02:58:47;101147.13;;;17.34;92.83
64844;BME280;51310;52.198;5.422;2023-09-12T03:01:19;101145.22;;;17.24;93.11
64844;BME280;51310;52.198;5.422;2023-09-12T03:03:46;101154.56;;;17.41;92.93
64844;BME280;51310;52.198;5.422;2023-09-12T03:06:13;101150.53;;;17.36;93.02
64844;BME280;51310;52.198;5.422;2023-09-12T03:08:40;101146.25;;;17.33;92.94
64844;BME280;51310;52.198;5.422;2023-09-12T03:11:06;101163.41;;;17.43;93.08
64844;BME280;51310;52.198;5.422;2023-09-12T03:13:34;101143.44;;;17.35;93.25
64844;BME280;51310;52.198;5.422;2023-09-12T03:16:00;101144.41;;;17.34;93.29
64844;BME280;51310;52.198;5.422;2023-09-12T03:18:26;101161.09;;;17.39;93.14
64844;BME280;51310;52.198;5.422;2023-09-12T03:20:52;101170.72;;;17.32;93.29
64844;BME280;51310;52.198;5.422;2023-09-12T03:23:19;101170.44;;;17.35;93.25
64844;BME280;51310;52.198;5.422;2023-09-12T03:25:46;101162.06;;;17.38;93.32
64844;BME280;51310;52.198;5.422;2023-09-12T03:28:12;101165.06;;;17.35;93.24
64844;BME280;51310;52.198;5.422;2023-09-12T03:30:39;101166.41;;;17.29;93.31
64844;BME280;51310;52.198;5.422;2023-09-12T03:33:05;101162.03;;;17.28;93.07
64844;BME280;51310;52.198;5.422;2023-09-12T03:35:32;101155.91;;;17.26;93.13
64844;BME280;51310;52.198;5.422;2023-09-12T03:37:59;101153.06;;;17.27;93.35
64844;BME280;51310;52.198;5.422;2023-09-12T03:40:28;101145.09;;;17.26;93.22
64844;BME280;51310;52.198;5.422;2023-09-12T03:42:56;101155.50;;;17.31;93.12
64844;BME280;51310;52.198;5.422;2023-09-12T03:45:23;101148.25;;;17.31;93.45
64844;BME280;51310;52.198;5.422;2023-09-12T03:47:51;101133.84;;;17.21;93.25
64844;BME280;51310;52.198;5.422;2023-09-12T03:50:17;101146.53;;;17.30;93.17
64844;BME280;51310;52.198;5.422;2023-09-12T03:52:43;101133.22;;;17.17;93.19
64844;BME280;51310;52.198;5.422;2023-09-12T03:55:09;101155.22;;;17.34;93.47
64844;BME280;51310;52.198;5.422;2023-09-12T03:57:35;101151.53;;;17.35;93.42
64844;BME280;51310;52.198;5.422;2023-09-12T04:00:01;101145.69;;;17.30;93.47
64844;BME280;51310;52.198;5.422;2023-09-12T04:02:31;101156.53;;;17.39;93.40
64844;BME280;51310;52.198;5.422;2023-09-12T04:04:57;101133.34;;;17.37;93.32
64844;BME280;51310;52.198;5.422;2023-09-12T04:07:24;101126.94;;;17.38;93.36
64844;BME280;51310;52.198;5.422;2023-09-12T04:09:50;101132.09;;;17.41;93.34
64844;BME280;51310;52.198;5.422;2023-09-12T04:12:17;101139.97;;;17.54;93.66
64844;BME280;51310;52.198;5.422;2023-09-12T04:14:42;101148.97;;;17.54;93.49
64844;BME280;51310;52.198;5.422;2023-09-12T04:17:08;101143.56;;;17.54;93.58
64844;BME280;51310;52.198;5.422;2023-09-12T04:19:34;101137.59;;;17.60;93.58
64844;BME280;51310;52.198;5.422;2023-09-12T04:22:00;101142.75;;;17.63;93.54
64844;BME280;51310;52.198;5.422;2023-09-12T04:24:26;101131.66;;;17.66;93.62
64844;BME280;51310;52.198;5.422;2023-09-12T04:26:53;101130.53;;;17.69;93.72
64844;BME280;51310;52.198;5.422;2023-09-12T04:29:19;101126.25;;;17.66;93.51
64844;BME280;51310;52.198;5.422;2023-09-12T04:31:45;101135.69;;;17.72;93.67
64844;BME280;51310;52.198;5.422;2023-09-12T04:34:11;101127.41;;;17.74;93.62
64844;BME280;51310;52.198;5.422;2023-09-12T04:36:37;101119.47;;;17.72;93.65
64844;BME280;51310;52.198;5.422;2023-09-12T04:39:03;101120.31;;;17.73;93.55
64844;BME280;51310;52.198;5.422;2023-09-12T04:41:30;101107.59;;;17.63;93.51
64844;BME280;51310;52.198;5.422;2023-09-12T04:43:56;101115.88;;;17.72;93.50
64844;BME280;51310;52.198;5.422;2023-09-12T04:46:24;101110.47;;;17.72;93.49
64844;BME280;51310;52.198;5.422;2023-09-12T04:48:50;101121.28;;;17.72;93.63
64844;BME280;51310;52.198;5.422;2023-09-12T04:51:15;101129.13;;;17.75;93.39
64844;BME280;51310;52.198;5.422;2023-09-12T04:53:42;101130.84;;;17.76;93.52
64844;BME280;51310;52.198;5.422;2023-09-12T04:56:08;101129.97;;;17.75;93.39
64844;BME280;51310;52.198;5.422;2023-09-12T04:58:35;101123.97;;;17.72;93.27
64844;BME280;51310;52.198;5.422;2023-09-12T05:01:01;101111.56;;;17.59;93.17
64844;BME280;51310;52.198;5.422;2023-09-12T05:03:28;101120.84;;;17.66;93.29
64844;BME280;51310;52.198;5.422;2023-09-12T05:05:53;101122.28;;;17.71;93.23
64844;BME280;51310;52.198;5.422;2023-09-12T05:08:19;101128.41;;;17.73;93.43
64844;BME280;51310;52.198;5.422;2023-09-12T05:10:45;101131.69;;;17.76;93.50
64844;BME280;51310;52.198;5.422;2023-09-12T05:13:11;101108.91;;;17.69;93.45
64844;BME280;51310;52.198;5.422;2023-09-12T05:15:40;101126.38;;;17.86;93.45
64844;BME280;51310;52.198;5.422;2023-09-12T05:18:07;101109.22;;;17.76;93.20
64844;BME280;51310;52.198;5.422;2023-09-12T05:20:33;101112.75;;;17.76;93.33
64844;BME280;51310;52.198;5.422;2023-09-12T05:23:00;101131.91;;;17.84;93.30
64844;BME280;51310;52.198;5.422;2023-09-12T05:25:26;101121.47;;;17.80;93.18
64844;BME280;51310;52.198;5.422;2023-09-12T05:27:53;101129.19;;;17.84;93.05
64844;BME280;51310;52.198;5.422;2023-09-12T05:30:18;101127.16;;;17.77;93.34
64844;BME280;51310;52.198;5.422;2023-09-12T05:32:44;101145.69;;;17.81;93.14
64844;BME280;51310;52.198;5.422;2023-09-12T05:35:10;101149.97;;;17.84;93.09
64844;BME280;51310;52.198;5.422;2023-09-12T05:37:36;101148.50;;;17.80;93.15
64844;BME280;51310;52.198;5.422;2023-09-12T05:40:03;101113.56;;;17.57;93.23
64844;BME280;51310;52.198;5.422;2023-09-12T05:42:29;101152.34;;;17.77;93.06
64844;BME280;51310;52.198;5.422;2023-09-12T05:44:55;101125.81;;;17.61;93.03
64844;BME280;51310;52.198;5.422;2023-09-12T05:47:22;101152.75;;;17.73;93.11
64844;BME280;51310;52.198;5.422;2023-09-12T05:49:48;101152.91;;;17.81;93.14
64844;BME280;51310;52.198;5.422;2023-09-12T05:52:15;101160.59;;;18.06;93.38
64844;BME280;51310;52.198;5.422;2023-09-12T05:54:41;101147.59;;;18.00;93.45
64844;BME280;51310;52.198;5.422;2023-09-12T05:57:09;101163.41;;;18.05;93.20
64844;BME280;51310;52.198;5.422;2023-09-12T05:59:37;101147.06;;;18.06;93.16
64844;BME280;51310;52.198;5.422;2023-09-12T06:02:05;101152.59;;;18.05;93.25
64844;BME280;51310;52.198;5.422;2023-09-12T06:04:33;101151.22;;;18.10;93.35
64844;BME280;51310;52.198;5.422;2023-09-12T06:07:04;101149.22;;;18.13;93.06
64844;BME280;51310;52.198;5.422;2023-09-12T06:09:30;101139.50;;;18.10;93.02
64844;BME280;51310;52.198;5.422;2023-09-12T06:11:56;101140.94;;;18.14;92.72
64844;BME280;51310;52.198;5.422;2023-09-12T06:14:23;101148.81;;;18.27;92.85
64844;BME280;51310;52.198;5.422;2023-09-12T06:16:49;101166.94;;;18.46;92.73
64844;BME280;51310;52.198;5.422;2023-09-12T06:19:19;101175.22;;;18.54;92.37
64844;BME280;51310;52.198;5.422;2023-09-12T06:21:45;101175.22;;;18.54;92.03
64844;BME280;51310;52.198;5.422;2023-09-12T06:24:19;101174.66;;;18.60;91.75
64844;BME280;51310;52.198;5.422;2023-09-12T06:26:49;101165.53;;;18.71;91.46
64844;BME280;51310;52.198;5.422;2023-09-12T06:29:15;101176.97;;;18.84;90.80
64844;BME280;51310;52.198;5.422;2023-09-12T06:31:41;101171.84;;;18.81;90.36
64844;BME280;51310;52.198;5.422;2023-09-12T06:34:08;101171.94;;;18.70;89.86
64844;BME280;51310;52.198;5.422;2023-09-12T06:36:34;101179.50;;;18.76;89.49
64844;BME280;51310;52.198;5.422;2023-09-12T06:39:01;101180.19;;;18.68;89.38
64844;BME280;51310;52.198;5.422;2023-09-12T06:41:27;101160.13;;;18.61;89.23
64844;BME280;51310;52.198;5.422;2023-09-12T06:43:53;101184.94;;;18.76;89.19
64844;BME280;51310;52.198;5.422;2023-09-12T06:46:21;101184.38;;;18.82;89.29
64844;BME280;51310;52.198;5.422;2023-09-12T06:48:47;101188.38;;;18.88;89.11
64844;BME280;51310;52.198;5.422;2023-09-12T06:51:14;101176.41;;;18.90;89.02
64844;BME280;51310;52.198;5.422;2023-09-12T06:53:40;101186.25;;;18.91;88.85
64844;BME280;51310;52.198;5.422;2023-09-12T06:56:06;101190.38;;;18.96;88.56
64844;BME280;51310;52.198;5.422;2023-09-12T06:58:33;101170.84;;;18.92;88.74
64844;BME280;51310;52.198;5.422;2023-09-12T07:01:06;101191.22;;;19.06;88.51
64844;BME280;51310;52.198;5.422;2023-09-12T07:03:36;101179.97;;;19.10;87.97
64844;BME280;51310;52.198;5.422;2023-09-12T07:06:03;101187.66;;;19.15;88.25
64844;BME280;51310;52.198;5.422;2023-09-12T07:08:30;101184.38;;;19.11;87.69
64844;BME280;51310;52.198;5.422;2023-09-12T07:10:58;101176.41;;;19.10;87.62
64844;BME280;51310;52.198;5.422;2023-09-12T07:13:31;101202.63;;;19.19;87.48
64844;BME280;51310;52.198;5.422;2023-09-12T07:15:59;101187.50;;;19.07;87.51
64844;BME280;51310;52.198;5.422;2023-09-12T07:18:25;101190.66;;;19.12;87.50
64844;BME280;51310;52.198;5.422;2023-09-12T07:21:02;101187.50;;;19.07;87.16
64844;BME280;51310;52.198;5.422;2023-09-12T07:23:30;101183.41;;;19.03;87.19
64844;BME280;51310;52.198;5.422;2023-09-12T07:25:56;101174.56;;;19.01;87.37
64844;BME280;51310;52.198;5.422;2023-09-12T07:28:26;101182.81;;;18.99;87.56
64844;BME280;51310;52.198;5.422;2023-09-12T07:30:54;101174.81;;;18.98;87.73
64844;BME280;51310;52.198;5.422;2023-09-12T07:33:20;101187.38;;;18.99;88.02
64844;BME280;51310;52.198;5.422;2023-09-12T07:35:47;101181.25;;;18.97;87.77
64844;BME280;51310;52.198;5.422;2023-09-12T07:38:14;101196.66;;;18.96;88.06
64844;BME280;51310;52.198;5.422;2023-09-12T07:40:43;101189.22;;;18.88;87.74
64844;BME280;51310;52.198;5.422;2023-09-12T07:43:09;101175.28;;;18.83;87.52
64844;BME280;51310;52.198;5.422;2023-09-12T07:45:36;101186.25;;;18.91;87.67
64844;BME280;51310;52.198;5.422;2023-09-12T07:48:10;101165.16;;;18.85;87.58
64844;BME280;51310;52.198;5.422;2023-09-12T07:50:37;101200.06;;;19.27;87.89
64844;BME280;51310;52.198;5.422;2023-09-12T07:53:06;101202.00;;;19.45;87.97
64844;BME280;51310;52.198;5.422;2023-09-12T07:55:37;101192.56;;;19.59;87.01
64844;BME280;51310;52.198;5.422;2023-09-12T07:58:13;101205.66;;;19.83;86.83
64844;BME280;51310;52.198;5.422;2023-09-12T08:00:39;101203.88;;;20.01;86.51
64844;BME280;51310;52.198;5.422;2023-09-12T08:03:06;101201.38;;;20.17;85.90
64844;BME280;51310;52.198;5.422;2023-09-12T08:05:31;101187.03;;;20.25;85.29
64844;BME280;51310;52.198;5.422;2023-09-12T08:07:57;101193.75;;;20.49;83.84
64844;BME280;51310;52.198;5.422;2023-09-12T08:10:23;101206.09;;;20.43;82.98
64844;BME280;51310;52.198;5.422;2023-09-12T08:12:49;101219.06;;;20.49;82.83
64844;BME280;51310;52.198;5.422;2023-09-12T08:15:15;101202.88;;;20.57;82.41
64844;BME280;51310;52.198;5.422;2023-09-12T08:17:41;101219.13;;;20.85;81.84
64844;BME280;51310;52.198;5.422;2023-09-12T08:20:10;101211.66;;;20.87;81.05
64844;BME280;51310;52.198;5.422;2023-09-12T08:22:37;101230.53;;;21.07;80.92
64844;BME280;51310;52.198;5.422;2023-09-12T08:25:04;101222.00;;;21.02;80.38
64844;BME280;51310;52.198;5.422;2023-09-12T08:27:30;101223.41;;;21.06;80.62
64844;BME280;51310;52.198;5.422;2023-09-12T08:29:56;101222.09;;;21.10;79.89
64844;BME280;51310;52.198;5.422;2023-09-12T08:32:22;101224.63;;;20.93;79.94
64844;BME280;51310;52.198;5.422;2023-09-12T08:34:48;101221.31;;;20.99;80.54
64844;BME280;51310;52.198;5.422;2023-09-12T08:37:14;101212.44;;;20.97;80.77
64844;BME280;51310;52.198;5.422;2023-09-12T08:39:44;101233.81;;;21.10;80.22
64844;BME280;51310;52.198;5.422;2023-09-12T08:42:15;101235.44;;;21.21;79.67
64844;BME280;51310;52.198;5.422;2023-09-12T08:44:43;101228.72;;;21.33;78.99
64844;BME280;51310;52.198;5.422;2023-09-12T08:47:09;101187.59;;;21.10;78.94
64844;BME280;51310;52.198;5.422;2023-09-12T08:49:37;101230.63;;;21.15;78.81
64844;BME280;51310;52.198;5.422;2023-09-12T08:52:05;101224.88;;;21.00;79.33
64844;BME280;51310;52.198;5.422;2023-09-12T08:54:32;101222.25;;;20.90;79.92
64844;BME280;51310;52.198;5.422;2023-09-12T08:57:02;101231.38;;;20.89;80.18
64844;BME280;51310;52.198;5.422;2023-09-12T08:59:31;101222.63;;;20.95;80.30
64844;BME280;51310;52.198;5.422;2023-09-12T09:02:00;101221.38;;;21.08;80.38
64844;BME280;51310;52.198;5.422;2023-09-12T09:04:31;101224.25;;;21.24;79.64
64844;BME280;51310;52.198;5.422;2023-09-12T09:07:00;101221.75;;;21.49;78.93
64844;BME280;51310;52.198;5.422;2023-09-12T09:09:28;101211.81;;;21.66;78.24
64844;BME280;51310;52.198;5.422;2023-09-12T09:11:55;101204.28;;;21.86;77.43
64844;BME280;51310;52.198;5.422;2023-09-12T09:14:21;101209.44;;;21.97;76.51
64844;BME280;51310;52.198;5.422;2023-09-12T09:16:48;101224.81;;;22.06;76.27
64844;BME280;51310;52.198;5.422;2023-09-12T09:19:15;101222.28;;;22.13;75.55
64844;BME280;51310;52.198;5.422;2023-09-12T09:21:42;101225.69;;;22.15;74.93
64844;BME280;51310;52.198;5.422;2023-09-12T09:24:10;101222.41;;;21.69;75.84
64844;BME280;51310;52.198;5.422;2023-09-12T09:26:51;101212.03;;;21.46;77.50
64844;BME280;51310;52.198;5.422;2023-09-12T09:29:25;101222.81;;;21.56;77.33
64844;BME280;51310;52.198;5.422;2023-09-12T09:31:54;101229.75;;;21.76;77.53
64844;BME280;51310;52.198;5.422;2023-09-12T09:34:21;101218.94;;;21.85;76.95
64844;BME280;51310;52.198;5.422;2023-09-12T09:36:51;101235.97;;;21.95;76.70
64844;BME280;51310;52.198;5.422;2023-09-12T09:39:22;101240.44;;;22.04;76.55
64844;BME280;51310;52.198;5.422;2023-09-12T09:41:55;101239.16;;;22.16;76.09
64844;BME280;51310;52.198;5.422;2023-09-12T09:44:24;101228.97;;;22.18;75.57
64844;BME280;51310;52.198;5.422;2023-09-12T09:46:59;101207.56;;;22.23;74.12
64844;BME280;51310;52.198;5.422;2023-09-12T09:49:28;101222.22;;;22.31;73.52
64844;BME280;51310;52.198;5.422;2023-09-12T09:51:57;101240.88;;;22.52;73.88
64844;BME280;51310;52.198;5.422;2023-09-12T09:54:25;101236.66;;;22.65;73.45
64844;BME280;51310;52.198;5.422;2023-09-12T09:56:56;101249.78;;;22.78;72.96
64844;BME280;51310;52.198;5.422;2023-09-12T09:59:25;101246.41;;;22.84;73.83
64844;BME280;51310;52.198;5.422;2023-09-12T10:01:59;101239.06;;;22.77;72.42
64844;BME280;51310;52.198;5.422;2023-09-12T10:04:28;101240.88;;;22.60;72.66
64844;BME280;51310;52.198;5.422;2023-09-12T10:06:57;101244.78;;;22.57;73.37
64844;BME280;51310;52.198;5.422;2023-09-12T10:09:26;101233.56;;;22.52;72.26
64844;BME280;51310;52.198;5.422;2023-09-12T10:11:55;101235.13;;;22.71;72.95
64844;BME280;51310;52.198;5.422;2023-09-12T10:14:24;101241.44;;;22.80;72.54
64844;BME280;51310;52.198;5.422;2023-09-12T10:17:03;101251.69;;;22.94;72.85
64844;BME280;51310;52.198;5.422;2023-09-12T10:19:43;101256.03;;;23.13;71.91
64844;BME280;51310;52.198;5.422;2023-09-12T10:22:44;101244.28;;;23.29;70.97
64844;BME280;51310;52.198;5.422;2023-09-12T10:25:17;101252.94;;;23.33;70.05
64844;BME280;51310;52.198;5.422;2023-09-12T10:27:43;101264.03;;;23.39;68.70
64844;BME280;51310;52.198;5.422;2023-09-12T10:30:09;101223.41;;;22.87;70.21
64844;BME280;51310;52.198;5.422;2023-09-12T10:32:36;101249.72;;;23.13;70.26
64844;BME280;51310;52.198;5.422;2023-09-12T10:35:06;101262.50;;;23.20;69.67
64844;BME280;51310;52.198;5.422;2023-09-12T10:37:35;101246.13;;;23.12;69.49
64844;BME280;51310;52.198;5.422;2023-09-12T10:40:08;101233.38;;;23.13;69.45
64844;BME280;51310;52.198;5.422;2023-09-12T10:42:35;101231.81;;;23.10;69.83
64844;BME280;51310;52.198;5.422;2023-09-12T10:45:03;101239.44;;;22.98;69.55
64844;BME280;51310;52.198;5.422;2023-09-12T10:47:33;101225.94;;;22.80;70.05
64844;BME280;51310;52.198;5.422;2023-09-12T10:50:04;101246.13;;;23.12;69.73
64844;BME280;51310;52.198;5.422;2023-09-12T10:52:32;101236.06;;;23.21;68.47
64844;BME280;51310;52.198;5.422;2023-09-12T10:55:04;101244.59;;;23.59;68.48
64844;BME280;51310;52.198;5.422;2023-09-12T10:57:31;101250.56;;;23.79;68.00
64844;BME280;51310;52.198;5.422;2023-09-12T11:02:38;101249.31;;;24.06;66.50
64844;BME280;51310;52.198;5.422;2023-09-12T11:07:59;101240.72;;;24.25;66.11
64844;BME280;51310;52.198;5.422;2023-09-12T11:10:27;101234.72;;;24.30;65.34
64844;BME280;51310;52.198;5.422;2023-09-12T11:12:58;101247.94;;;24.10;65.74
64844;BME280;51310;52.198;5.422;2023-09-12T11:15:27;101237.69;;;24.12;64.88
64844;BME280;51310;52.198;5.422;2023-09-12T11:18:04;101232.09;;;23.97;65.58
64844;BME280;51310;52.198;5.422;2023-09-12T11:21:00;101227.03;;;23.78;65.84
64844;BME280;51310;52.198;5.422;2023-09-12T11:23:29;101222.09;;;23.65;65.97
64844;BME280;51310;52.198;5.422;2023-09-12T11:26:08;101211.53;;;23.54;64.89
64844;BME280;51310;52.198;5.422;2023-09-12T11:28:36;101218.28;;;23.90;65.21
64844;BME280;51310;52.198;5.422;2023-09-12T11:31:04;101199.69;;;23.94;64.55
64844;BME280;51310;52.198;5.422;2023-09-12T11:33:32;101207.66;;;24.12;64.78
64844;BME280;51310;52.198;5.422;2023-09-12T11:35:58;101212.19;;;24.28;64.62
64844;BME280;51310;52.198;5.422;2023-09-12T11:38:29;101205.63;;;24.06;64.96
64844;BME280;51310;52.198;5.422;2023-09-12T11:40:57;101196.13;;;23.85;65.03
64844;BME280;51310;52.198;5.422;2023-09-12T11:43:26;101203.66;;;23.83;65.55
64844;BME280;51310;52.198;5.422;2023-09-12T11:45:55;101194.63;;;23.66;64.16
64844;BME280;51310;52.198;5.422;2023-09-12T11:48:22;101209.28;;;23.74;63.42
64844;BME280;51310;52.198;5.422;2023-09-12T11:50:55;101202.94;;;23.73;62.56
64844;BME280;51310;52.198;5.422;2023-09-12T11:53:25;101208.75;;;23.70;63.15
64844;BME280;51310;52.198;5.422;2023-09-12T11:55:58;101199.88;;;23.68;62.66
64844;BME280;51310;52.198;5.422;2023-09-12T11:58:25;101202.28;;;23.79;63.73
64844;BME280;51310;52.198;5.422;2023-09-12T12:00:57;101212.50;;;23.85;62.99
64844;BME280;51310;52.198;5.422;2023-09-12T12:03:26;101210.31;;;23.81;63.56
64844;BME280;51310;52.198;5.422;2023-09-12T12:05:54;101209.41;;;23.88;61.54
64844;BME280;51310;52.198;5.422;2023-09-12T12:08:21;101211.06;;;24.06;61.08
64844;BME280;51310;52.198;5.422;2023-09-12T12:10:51;101205.53;;;24.30;58.75
64844;BME280;51310;52.198;5.422;2023-09-12T12:13:20;101192.31;;;24.42;58.90
64844;BME280;51310;52.198;5.422;2023-09-12T12:15:47;101207.50;;;24.76;59.22
64844;BME280;51310;52.198;5.422;2023-09-12T12:18:15;101213.41;;;25.11;57.45
64844;BME280;51310;52.198;5.422;2023-09-12T12:20:41;101187.34;;;25.00;56.53
64844;BME280;51310;52.198;5.422;2023-09-12T12:23:08;101200.28;;;24.83;56.45
64844;BME280;51310;52.198;5.422;2023-09-12T12:25:35;101191.09;;;24.45;57.84
64844;BME280;51310;52.198;5.422;2023-09-12T12:28:03;101199.78;;;24.57;59.05
64844;BME280;51310;52.198;5.422;2023-09-12T12:30:34;101199.25;;;24.61;58.05
64844;BME280;51310;52.198;5.422;2023-09-12T12:33:11;101193.03;;;24.67;57.50
64844;BME280;51310;52.198;5.422;2023-09-12T12:35:37;101196.81;;;24.66;58.01
64844;BME280;51310;52.198;5.422;2023-09-12T12:38:06;101174.25;;;24.33;58.81
64844;BME280;51310;52.198;5.422;2023-09-12T12:40:38;101186.09;;;24.25;61.09
64844;BME280;51310;52.198;5.422;2023-09-12T12:43:16;101184.44;;;24.16;62.36
64844;BME280;51310;52.198;5.422;2023-09-12T12:45:55;101181.03;;;24.14;61.71
64844;BME280;51310;52.198;5.422;2023-09-12T12:48:34;101184.47;;;24.08;61.98
64844;BME280;51310;52.198;5.422;2023-09-12T12:51:17;101181.88;;;24.15;62.64
64844;BME280;51310;52.198;5.422;2023-09-12T12:54:03;101175.38;;;24.16;61.68
64844;BME280;51310;52.198;5.422;2023-09-12T12:56:31;101184.22;;;24.18;61.50
64844;BME280;51310;52.198;5.422;2023-09-12T12:59:00;101177.75;;;24.19;61.65
64844;BME280;51310;52.198;5.422;2023-09-12T13:01:34;101164.44;;;24.16;61.66